Strona główna
METAR-TAF:

METAR-TAF

Lotnisko :

Port lotniczy Bukareszt-Otopeni

Bukareszt, Rumunia

Szerokość geograficzna: 44-33N, Długość geograficzna: 026-06E, wysokość: 95 m

Aktualna obserwacja pogody

Raport powstał 16 minut temu, godzina 06:00 UTC
Wiatr 5 kt od północny wschód
Temperatura 23°C
Wilgotność 69%
Ciśnienie 1019 hPa
Widzialność 10 km lub więcej
Brak chmur poniżej 1500 m i brak chmur cumulonimbus

METAR: LROP 200600Z 04005KT CAVOK 23/17 Q1019 NOSIG

czas: 09:16 (06:16 UTC)

Prognoza

Raport powstał 1 godzina i 16 minut temu, godzina 05:00 UTC
Prognoza ważna od 20 godzina 06 UTC do 21 godzina 06 UTC
Wiatr 7 kt od północno-północny wschód
Widzialność 10 km lub więcej
Brak chmur poniżej 1500 m i brak chmur cumulonimbus
Prawdopodobieństwo 30% :
Przejściowo
od 20 godzina 14 UTC do 20 godzina 18 UTC
Wiatr 16 kt z kierunków zmiennych
Widzialność: 5000 m
Rozproszone chmury na wysokości 4500 ft, Cumulonimbus.
burza, słaby deszcz

TAF: LROP 200500Z 2006/2106 03007KT CAVOK PROB30 TEMPO 2014/2018 VRB16KT 5000 -TSRA SCT045CB

Obserwacja i prognoza pogody dla ponad 4000 lotnisk (raport METAR i TAF).

Dostępne stacje oznaczono żółtymi i czerwonymi punktami na mapie.

Najedź kursorem aby zobaczyć nazwę stacji.

Kliknij aby zobaczyć obserwacje i prognozy pogody.

Aby zmienić mapę: kliknij na zielony przycisk z czarnym krzyżykiem, aby powiększyć; na zielony przycisk z myślnikiem, aby pomniejszyć; na zielone strzałki, aby przejść do map sąsiednich.


METAR-TAF: